sensor_id;sensor_type;location;lat;lon;timestamp;P1;durP1;ratioP1;P2;durP2;ratioP2
17079;SDS011;8655;57.106;-2.088;2022-11-20T00:02:25;12.10;;;3.30;;
17079;SDS011;8655;57.106;-2.088;2022-11-20T00:04:51;8.27;;;2.53;;
17079;SDS011;8655;57.106;-2.088;2022-11-20T00:07:16;7.03;;;2.50;;
17079;SDS011;8655;57.106;-2.088;2022-11-20T00:09:42;12.33;;;2.93;;
17079;SDS011;8655;57.106;-2.088;2022-11-20T00:12:08;7.30;;;2.70;;
17079;SDS011;8655;57.106;-2.088;2022-11-20T00:14:33;9.33;;;2.60;;
17079;SDS011;8655;57.106;-2.088;2022-11-20T00:16:59;8.60;;;2.50;;
17079;SDS011;8655;57.106;-2.088;2022-11-20T00:19:25;7.87;;;2.53;;
17079;SDS011;8655;57.106;-2.088;2022-11-20T00:21:51;9.47;;;3.00;;
17079;SDS011;8655;57.106;-2.088;2022-11-20T00:24:18;9.43;;;2.77;;
17079;SDS011;8655;57.106;-2.088;2022-11-20T00:26:44;8.70;;;2.77;;
17079;SDS011;8655;57.106;-2.088;2022-11-20T00:29:10;9.63;;;2.77;;
17079;SDS011;8655;57.106;-2.088;2022-11-20T00:31:36;8.23;;;2.60;;
17079;SDS011;8655;57.106;-2.088;2022-11-20T00:34:01;10.10;;;2.43;;
17079;SDS011;8655;57.106;-2.088;2022-11-20T00:36:27;9.23;;;2.90;;
17079;SDS011;8655;57.106;-2.088;2022-11-20T00:38:56;8.77;;;2.80;;
17079;SDS011;8655;57.106;-2.088;2022-11-20T00:41:23;8.43;;;2.43;;
17079;SDS011;8655;57.106;-2.088;2022-11-20T00:43:51;9.40;;;2.77;;
17079;SDS011;8655;57.106;-2.088;2022-11-20T00:46:19;8.17;;;2.50;;
17079;SDS011;8655;57.106;-2.088;2022-11-20T00:48:46;7.77;;;2.53;;
17079;SDS011;8655;57.106;-2.088;2022-11-20T00:51:15;7.97;;;2.40;;
17079;SDS011;8655;57.106;-2.088;2022-11-20T00:53:42;8.13;;;2.43;;
17079;SDS011;8655;57.106;-2.088;2022-11-20T00:56:15;6.53;;;2.57;;
17079;SDS011;8655;57.106;-2.088;2022-11-20T00:58:43;8.47;;;2.77;;
17079;SDS011;8655;57.106;-2.088;2022-11-20T01:01:11;9.53;;;2.67;;
17079;SDS011;8655;57.106;-2.088;2022-11-20T01:03:40;7.53;;;2.60;;
17079;SDS011;8655;57.106;-2.088;2022-11-20T01:06:18;7.50;;;2.53;;
17079;SDS011;8655;57.106;-2.088;2022-11-20T01:08:46;8.70;;;2.60;;
17079;SDS011;8655;57.106;-2.088;2022-11-20T01:11:14;8.33;;;2.90;;
17079;SDS011;8655;57.106;-2.088;2022-11-20T01:13:45;7.00;;;2.77;;
17079;SDS011;8655;57.106;-2.088;2022-11-20T01:18:58;7.60;;;2.70;;
17079;SDS011;8655;57.106;-2.088;2022-11-20T01:21:26;7.17;;;2.50;;
17079;SDS011;8655;57.106;-2.088;2022-11-20T01:24:01;8.50;;;2.70;;
17079;SDS011;8655;57.106;-2.088;2022-11-20T01:26:29;9.20;;;2.57;;
17079;SDS011;8655;57.106;-2.088;2022-11-20T01:28:57;11.17;;;3.03;;
17079;SDS011;8655;57.106;-2.088;2022-11-20T01:31:24;9.27;;;3.03;;
17079;SDS011;8655;57.106;-2.088;2022-11-20T01:33:57;8.10;;;3.07;;
17079;SDS011;8655;57.106;-2.088;2022-11-20T01:36:31;7.33;;;2.60;;
17079;SDS011;8655;57.106;-2.088;2022-11-20T01:38:58;9.17;;;3.03;;
17079;SDS011;8655;57.106;-2.088;2022-11-20T01:41:51;9.83;;;2.50;;
17079;SDS011;8655;57.106;-2.088;2022-11-20T01:44:45;10.80;;;2.83;;
17079;SDS011;8655;57.106;-2.088;2022-11-20T01:47:16;8.43;;;2.80;;
17079;SDS011;8655;57.106;-2.088;2022-11-20T01:49:48;8.80;;;2.77;;
17079;SDS011;8655;57.106;-2.088;2022-11-20T01:52:23;7.47;;;2.30;;
17079;SDS011;8655;57.106;-2.088;2022-11-20T01:54:58;10.17;;;3.10;;
17079;SDS011;8655;57.106;-2.088;2022-11-20T01:57:38;6.13;;;2.50;;
17079;SDS011;8655;57.106;-2.088;2022-11-20T02:00:08;9.37;;;3.00;;
17079;SDS011;8655;57.106;-2.088;2022-11-20T02:02:36;9.27;;;2.70;;
17079;SDS011;8655;57.106;-2.088;2022-11-20T02:05:27;8.87;;;2.60;;
17079;SDS011;8655;57.106;-2.088;2022-11-20T02:07:57;12.97;;;3.13;;
17079;SDS011;8655;57.106;-2.088;2022-11-20T02:10:24;11.00;;;3.10;;
17079;SDS011;8655;57.106;-2.088;2022-11-20T02:12:52;11.13;;;2.90;;
17079;SDS011;8655;57.106;-2.088;2022-11-20T02:15:36;7.87;;;3.00;;
17079;SDS011;8655;57.106;-2.088;2022-11-20T02:18:02;13.70;;;3.20;;
17079;SDS011;8655;57.106;-2.088;2022-11-20T02:20:30;10.13;;;3.13;;
17079;SDS011;8655;57.106;-2.088;2022-11-20T02:22:59;10.43;;;2.90;;
17079;SDS011;8655;57.106;-2.088;2022-11-20T02:25:30;12.10;;;3.13;;
17079;SDS011;8655;57.106;-2.088;2022-11-20T02:27:57;8.20;;;2.87;;
17079;SDS011;8655;57.106;-2.088;2022-11-20T02:30:22;8.47;;;3.10;;
17079;SDS011;8655;57.106;-2.088;2022-11-20T02:32:48;7.60;;;2.67;;
17079;SDS011;8655;57.106;-2.088;2022-11-20T02:37:43;11.57;;;3.47;;
17079;SDS011;8655;57.106;-2.088;2022-11-20T02:40:09;8.10;;;2.80;;
17079;SDS011;8655;57.106;-2.088;2022-11-20T02:42:36;9.47;;;2.93;;
17079;SDS011;8655;57.106;-2.088;2022-11-20T02:45:03;8.50;;;2.83;;
17079;SDS011;8655;57.106;-2.088;2022-11-20T02:47:30;9.77;;;3.27;;
17079;SDS011;8655;57.106;-2.088;2022-11-20T02:49:56;8.37;;;2.67;;
17079;SDS011;8655;57.106;-2.088;2022-11-20T02:52:22;9.43;;;3.00;;
17079;SDS011;8655;57.106;-2.088;2022-11-20T02:57:30;8.13;;;3.17;;
17079;SDS011;8655;57.106;-2.088;2022-11-20T02:59:56;9.00;;;2.87;;
17079;SDS011;8655;57.106;-2.088;2022-11-20T03:02:21;10.33;;;3.23;;
17079;SDS011;8655;57.106;-2.088;2022-11-20T03:04:47;7.97;;;2.80;;
17079;SDS011;8655;57.106;-2.088;2022-11-20T03:07:13;9.27;;;2.90;;
17079;SDS011;8655;57.106;-2.088;2022-11-20T03:09:38;7.30;;;2.80;;
17079;SDS011;8655;57.106;-2.088;2022-11-20T03:12:04;8.00;;;2.73;;
17079;SDS011;8655;57.106;-2.088;2022-11-20T03:14:30;8.10;;;2.60;;
17079;SDS011;8655;57.106;-2.088;2022-11-20T03:16:56;7.60;;;2.77;;
17079;SDS011;8655;57.106;-2.088;2022-11-20T03:19:22;10.07;;;2.90;;
17079;SDS011;8655;57.106;-2.088;2022-11-20T03:21:48;7.73;;;2.37;;
17079;SDS011;8655;57.106;-2.088;2022-11-20T03:24:13;10.33;;;3.10;;
17079;SDS011;8655;57.106;-2.088;2022-11-20T03:26:39;9.17;;;2.80;;
17079;SDS011;8655;57.106;-2.088;2022-11-20T03:29:05;9.23;;;3.43;;
17079;SDS011;8655;57.106;-2.088;2022-11-20T03:31:32;9.70;;;2.87;;
17079;SDS011;8655;57.106;-2.088;2022-11-20T03:34:00;8.50;;;2.90;;
17079;SDS011;8655;57.106;-2.088;2022-11-20T03:36:26;11.87;;;3.03;;
17079;SDS011;8655;57.106;-2.088;2022-11-20T03:38:53;9.03;;;2.83;;
17079;SDS011;8655;57.106;-2.088;2022-11-20T03:41:20;9.63;;;2.60;;
17079;SDS011;8655;57.106;-2.088;2022-11-20T03:46:21;7.67;;;3.43;;
17079;SDS011;8655;57.106;-2.088;2022-11-20T03:48:47;8.17;;;2.47;;
17079;SDS011;8655;57.106;-2.088;2022-11-20T03:51:14;12.30;;;3.43;;
17079;SDS011;8655;57.106;-2.088;2022-11-20T03:53:40;10.80;;;3.07;;
17079;SDS011;8655;57.106;-2.088;2022-11-20T03:56:08;8.00;;;2.90;;
17079;SDS011;8655;57.106;-2.088;2022-11-20T03:58:35;7.77;;;2.70;;
17079;SDS011;8655;57.106;-2.088;2022-11-20T04:01:09;11.60;;;3.47;;
17079;SDS011;8655;57.106;-2.088;2022-11-20T04:03:37;9.93;;;3.63;;
17079;SDS011;8655;57.106;-2.088;2022-11-20T04:06:07;11.60;;;3.13;;
17079;SDS011;8655;57.106;-2.088;2022-11-20T04:08:35;9.57;;;3.07;;
17079;SDS011;8655;57.106;-2.088;2022-11-20T04:11:17;8.87;;;3.00;;
17079;SDS011;8655;57.106;-2.088;2022-11-20T04:13:46;7.43;;;2.67;;
17079;SDS011;8655;57.106;-2.088;2022-11-20T04:16:13;10.83;;;2.90;;
17079;SDS011;8655;57.106;-2.088;2022-11-20T04:18:39;9.57;;;3.00;;
17079;SDS011;8655;57.106;-2.088;2022-11-20T04:21:05;8.30;;;3.00;;
17079;SDS011;8655;57.106;-2.088;2022-11-20T04:23:31;7.73;;;2.83;;
17079;SDS011;8655;57.106;-2.088;2022-11-20T04:26:10;10.37;;;2.87;;
17079;SDS011;8655;57.106;-2.088;2022-11-20T04:28:37;7.80;;;2.80;;
17079;SDS011;8655;57.106;-2.088;2022-11-20T04:31:14;8.57;;;2.70;;
17079;SDS011;8655;57.106;-2.088;2022-11-20T04:33:42;6.97;;;2.60;;
17079;SDS011;8655;57.106;-2.088;2022-11-20T04:36:11;8.33;;;2.83;;
17079;SDS011;8655;57.106;-2.088;2022-11-20T04:38:39;6.40;;;2.30;;
17079;SDS011;8655;57.106;-2.088;2022-11-20T04:41:06;9.80;;;2.70;;
17079;SDS011;8655;57.106;-2.088;2022-11-20T04:43:36;6.53;;;2.40;;
17079;SDS011;8655;57.106;-2.088;2022-11-20T04:46:01;7.23;;;2.40;;
17079;SDS011;8655;57.106;-2.088;2022-11-20T04:48:27;5.20;;;2.37;;
17079;SDS011;8655;57.106;-2.088;2022-11-20T04:50:54;8.37;;;2.60;;
17079;SDS011;8655;57.106;-2.088;2022-11-20T04:53:20;8.97;;;2.70;;
17079;SDS011;8655;57.106;-2.088;2022-11-20T04:55:46;7.73;;;2.50;;
17079;SDS011;8655;57.106;-2.088;2022-11-20T04:58:12;5.57;;;2.30;;
17079;SDS011;8655;57.106;-2.088;2022-11-20T05:00:39;5.57;;;2.40;;
17079;SDS011;8655;57.106;-2.088;2022-11-20T05:03:05;5.57;;;1.90;;
17079;SDS011;8655;57.106;-2.088;2022-11-20T05:05:31;5.50;;;2.30;;
17079;SDS011;8655;57.106;-2.088;2022-11-20T05:07:58;7.13;;;2.83;;
17079;SDS011;8655;57.106;-2.088;2022-11-20T05:10:24;8.07;;;2.67;;
17079;SDS011;8655;57.106;-2.088;2022-11-20T05:12:50;7.93;;;2.40;;
17079;SDS011;8655;57.106;-2.088;2022-11-20T05:15:16;6.90;;;2.37;;
17079;SDS011;8655;57.106;-2.088;2022-11-20T05:17:51;6.40;;;2.27;;
17079;SDS011;8655;57.106;-2.088;2022-11-20T05:20:18;5.93;;;2.37;;
17079;SDS011;8655;57.106;-2.088;2022-11-20T05:22:44;5.40;;;2.30;;
17079;SDS011;8655;57.106;-2.088;2022-11-20T05:25:10;7.93;;;2.47;;
17079;SDS011;8655;57.106;-2.088;2022-11-20T05:27:37;8.17;;;3.00;;
17079;SDS011;8655;57.106;-2.088;2022-11-20T05:30:05;5.60;;;2.33;;
17079;SDS011;8655;57.106;-2.088;2022-11-20T05:32:31;4.63;;;2.07;;
17079;SDS011;8655;57.106;-2.088;2022-11-20T05:34:57;5.20;;;2.23;;
17079;SDS011;8655;57.106;-2.088;2022-11-20T05:37:23;5.50;;;2.20;;
17079;SDS011;8655;57.106;-2.088;2022-11-20T05:39:48;6.10;;;1.97;;
17079;SDS011;8655;57.106;-2.088;2022-11-20T05:42:14;7.47;;;2.30;;
17079;SDS011;8655;57.106;-2.088;2022-11-20T05:44:55;6.10;;;2.20;;
17079;SDS011;8655;57.106;-2.088;2022-11-20T05:47:32;4.77;;;1.90;;
17079;SDS011;8655;57.106;-2.088;2022-11-20T05:49:58;6.73;;;2.40;;
17079;SDS011;8655;57.106;-2.088;2022-11-20T05:52:24;4.30;;;1.90;;
17079;SDS011;8655;57.106;-2.088;2022-11-20T05:54:53;5.97;;;2.13;;
17079;SDS011;8655;57.106;-2.088;2022-11-20T05:57:18;6.73;;;2.40;;
17079;SDS011;8655;57.106;-2.088;2022-11-20T05:59:44;7.07;;;2.43;;
17079;SDS011;8655;57.106;-2.088;2022-11-20T06:02:10;6.37;;;2.23;;
17079;SDS011;8655;57.106;-2.088;2022-11-20T06:04:35;5.30;;;2.37;;
17079;SDS011;8655;57.106;-2.088;2022-11-20T06:07:01;6.40;;;2.33;;
17079;SDS011;8655;57.106;-2.088;2022-11-20T06:09:27;6.20;;;2.13;;
17079;SDS011;8655;57.106;-2.088;2022-11-20T06:11:53;5.17;;;2.20;;
17079;SDS011;8655;57.106;-2.088;2022-11-20T06:14:18;4.70;;;2.13;;
17079;SDS011;8655;57.106;-2.088;2022-11-20T06:16:44;5.63;;;2.30;;
17079;SDS011;8655;57.106;-2.088;2022-11-20T06:19:10;6.47;;;2.30;;
17079;SDS011;8655;57.106;-2.088;2022-11-20T06:21:35;6.93;;;2.30;;
17079;SDS011;8655;57.106;-2.088;2022-11-20T06:24:01;5.83;;;2.30;;
17079;SDS011;8655;57.106;-2.088;2022-11-20T06:26:27;6.43;;;2.33;;
17079;SDS011;8655;57.106;-2.088;2022-11-20T06:28:53;5.53;;;2.10;;
17079;SDS011;8655;57.106;-2.088;2022-11-20T06:31:22;5.87;;;2.30;;
17079;SDS011;8655;57.106;-2.088;2022-11-20T06:33:48;5.03;;;2.23;;
17079;SDS011;8655;57.106;-2.088;2022-11-20T06:36:15;7.77;;;2.20;;
17079;SDS011;8655;57.106;-2.088;2022-11-20T06:38:42;4.70;;;2.20;;
17079;SDS011;8655;57.106;-2.088;2022-11-20T06:41:10;4.83;;;2.37;;
17079;SDS011;8655;57.106;-2.088;2022-11-20T06:43:38;5.20;;;2.00;;
17079;SDS011;8655;57.106;-2.088;2022-11-20T06:46:04;5.30;;;1.90;;
17079;SDS011;8655;57.106;-2.088;2022-11-20T06:48:29;4.10;;;1.90;;
17079;SDS011;8655;57.106;-2.088;2022-11-20T06:50:56;4.57;;;1.80;;
17079;SDS011;8655;57.106;-2.088;2022-11-20T06:53:22;3.53;;;1.80;;
17079;SDS011;8655;57.106;-2.088;2022-11-20T06:55:48;5.40;;;1.90;;
17079;SDS011;8655;57.106;-2.088;2022-11-20T06:58:15;3.37;;;1.90;;
17079;SDS011;8655;57.106;-2.088;2022-11-20T07:00:41;5.77;;;1.90;;
17079;SDS011;8655;57.106;-2.088;2022-11-20T07:03:08;4.27;;;1.73;;
17079;SDS011;8655;57.106;-2.088;2022-11-20T07:05:35;3.40;;;1.90;;
17079;SDS011;8655;57.106;-2.088;2022-11-20T07:08:01;4.10;;;1.70;;
17079;SDS011;8655;57.106;-2.088;2022-11-20T07:10:27;4.23;;;1.77;;
17079;SDS011;8655;57.106;-2.088;2022-11-20T07:12:53;4.70;;;2.03;;
17079;SDS011;8655;57.106;-2.088;2022-11-20T07:15:19;2.97;;;1.47;;
17079;SDS011;8655;57.106;-2.088;2022-11-20T07:17:46;3.97;;;1.80;;
17079;SDS011;8655;57.106;-2.088;2022-11-20T07:20:13;3.17;;;1.67;;
17079;SDS011;8655;57.106;-2.088;2022-11-20T07:22:39;3.03;;;1.80;;
17079;SDS011;8655;57.106;-2.088;2022-11-20T07:25:05;2.60;;;1.50;;
17079;SDS011;8655;57.106;-2.088;2022-11-20T07:27:32;4.70;;;2.00;;
17079;SDS011;8655;57.106;-2.088;2022-11-20T07:29:58;4.53;;;1.40;;
17079;SDS011;8655;57.106;-2.088;2022-11-20T07:32:23;3.93;;;2.00;;
17079;SDS011;8655;57.106;-2.088;2022-11-20T07:34:49;4.60;;;1.80;;
17079;SDS011;8655;57.106;-2.088;2022-11-20T07:37:15;2.53;;;1.33;;
17079;SDS011;8655;57.106;-2.088;2022-11-20T07:39:41;4.00;;;1.60;;
17079;SDS011;8655;57.106;-2.088;2022-11-20T07:42:07;4.37;;;1.93;;
17079;SDS011;8655;57.106;-2.088;2022-11-20T07:44:36;4.50;;;1.90;;
17079;SDS011;8655;57.106;-2.088;2022-11-20T07:47:02;4.10;;;1.57;;
17079;SDS011;8655;57.106;-2.088;2022-11-20T07:49:28;3.33;;;1.70;;
17079;SDS011;8655;57.106;-2.088;2022-11-20T07:51:54;5.10;;;1.80;;
17079;SDS011;8655;57.106;-2.088;2022-11-20T07:54:20;4.77;;;1.97;;
17079;SDS011;8655;57.106;-2.088;2022-11-20T07:56:46;4.03;;;1.60;;
17079;SDS011;8655;57.106;-2.088;2022-11-20T07:59:13;4.93;;;1.60;;
17079;SDS011;8655;57.106;-2.088;2022-11-20T08:01:39;6.40;;;1.83;;
17079;SDS011;8655;57.106;-2.088;2022-11-20T08:04:05;3.77;;;1.63;;
17079;SDS011;8655;57.106;-2.088;2022-11-20T08:06:31;3.47;;;1.67;;
17079;SDS011;8655;57.106;-2.088;2022-11-20T08:08:57;4.57;;;1.60;;
17079;SDS011;8655;57.106;-2.088;2022-11-20T08:11:23;4.43;;;1.60;;
17079;SDS011;8655;57.106;-2.088;2022-11-20T08:14:07;4.83;;;1.80;;
17079;SDS011;8655;57.106;-2.088;2022-11-20T08:16:40;3.60;;;1.40;;
17079;SDS011;8655;57.106;-2.088;2022-11-20T08:19:11;2.77;;;1.53;;
17079;SDS011;8655;57.106;-2.088;2022-11-20T08:21:38;4.20;;;1.60;;
17079;SDS011;8655;57.106;-2.088;2022-11-20T08:24:04;4.80;;;1.83;;
17079;SDS011;8655;57.106;-2.088;2022-11-20T08:26:30;2.87;;;1.67;;
17079;SDS011;8655;57.106;-2.088;2022-11-20T08:28:56;3.67;;;1.63;;
17079;SDS011;8655;57.106;-2.088;2022-11-20T08:31:22;2.93;;;1.53;;
17079;SDS011;8655;57.106;-2.088;2022-11-20T08:33:49;3.70;;;1.70;;
17079;SDS011;8655;57.106;-2.088;2022-11-20T08:36:15;2.30;;;1.50;;
17079;SDS011;8655;57.106;-2.088;2022-11-20T08:38:42;3.10;;;1.50;;
17079;SDS011;8655;57.106;-2.088;2022-11-20T08:41:11;3.90;;;2.07;;
17079;SDS011;8655;57.106;-2.088;2022-11-20T08:43:49;3.30;;;1.40;;
17079;SDS011;8655;57.106;-2.088;2022-11-20T08:46:16;3.53;;;1.70;;
17079;SDS011;8655;57.106;-2.088;2022-11-20T08:48:42;2.73;;;1.50;;
17079;SDS011;8655;57.106;-2.088;2022-11-20T08:51:08;4.03;;;1.50;;
17079;SDS011;8655;57.106;-2.088;2022-11-20T08:53:34;4.63;;;1.53;;
17079;SDS011;8655;57.106;-2.088;2022-11-20T08:56:00;3.00;;;1.40;;
17079;SDS011;8655;57.106;-2.088;2022-11-20T08:58:26;3.17;;;1.50;;
17079;SDS011;8655;57.106;-2.088;2022-11-20T09:00:52;3.20;;;1.60;;
17079;SDS011;8655;57.106;-2.088;2022-11-20T09:03:18;4.60;;;1.40;;
17079;SDS011;8655;57.106;-2.088;2022-11-20T09:05:44;2.93;;;1.43;;
17079;SDS011;8655;57.106;-2.088;2022-11-20T09:08:10;2.67;;;1.30;;
17079;SDS011;8655;57.106;-2.088;2022-11-20T09:10:36;5.67;;;1.37;;
17079;SDS011;8655;57.106;-2.088;2022-11-20T09:13:04;3.67;;;1.70;;
17079;SDS011;8655;57.106;-2.088;2022-11-20T09:15:30;3.23;;;1.30;;
17079;SDS011;8655;57.106;-2.088;2022-11-20T09:18:02;3.63;;;1.40;;
17079;SDS011;8655;57.106;-2.088;2022-11-20T09:20:30;3.37;;;1.40;;
17079;SDS011;8655;57.106;-2.088;2022-11-20T09:22:56;2.10;;;1.30;;
17079;SDS011;8655;57.106;-2.088;2022-11-20T09:25:22;2.40;;;1.47;;
17079;SDS011;8655;57.106;-2.088;2022-11-20T09:27:54;2.50;;;1.30;;
17079;SDS011;8655;57.106;-2.088;2022-11-20T09:30:21;3.80;;;1.30;;
17079;SDS011;8655;57.106;-2.088;2022-11-20T09:32:46;3.07;;;1.50;;
17079;SDS011;8655;57.106;-2.088;2022-11-20T09:35:12;3.10;;;1.20;;
17079;SDS011;8655;57.106;-2.088;2022-11-20T09:37:39;2.83;;;1.20;;
17079;SDS011;8655;57.106;-2.088;2022-11-20T09:40:05;4.07;;;1.80;;
17079;SDS011;8655;57.106;-2.088;2022-11-20T09:50:23;3.50;;;1.50;;
17079;SDS011;8655;57.106;-2.088;2022-11-20T09:55:55;3.90;;;1.43;;
17079;SDS011;8655;57.106;-2.088;2022-11-20T10:01:03;5.97;;;1.83;;
17079;SDS011;8655;57.106;-2.088;2022-11-20T10:06:15;4.30;;;1.40;;
17079;SDS011;8655;57.106;-2.088;2022-11-20T10:08:44;3.10;;;1.30;;
17079;SDS011;8655;57.106;-2.088;2022-11-20T10:19:33;4.90;;;1.60;;
17079;SDS011;8655;57.106;-2.088;2022-11-20T10:25:01;4.20;;;1.50;;
17079;SDS011;8655;57.106;-2.088;2022-11-20T10:30:12;3.57;;;1.33;;
17079;SDS011;8655;57.106;-2.088;2022-11-20T10:32:43;3.93;;;1.37;;
17079;SDS011;8655;57.106;-2.088;2022-11-20T10:37:44;2.50;;;1.20;;
17079;SDS011;8655;57.106;-2.088;2022-11-20T10:43:08;3.43;;;1.60;;
17079;SDS011;8655;57.106;-2.088;2022-11-20T10:48:25;2.50;;;1.27;;
17079;SDS011;8655;57.106;-2.088;2022-11-20T10:50:57;3.70;;;1.20;;
17079;SDS011;8655;57.106;-2.088;2022-11-20T10:53:39;3.00;;;1.30;;
17079;SDS011;8655;57.106;-2.088;2022-11-20T10:56:42;3.33;;;1.30;;
17079;SDS011;8655;57.106;-2.088;2022-11-20T11:01:56;3.97;;;1.53;;
17079;SDS011;8655;57.106;-2.088;2022-11-20T11:07:22;3.27;;;1.60;;
17079;SDS011;8655;57.106;-2.088;2022-11-20T11:09:52;2.63;;;1.00;;
17079;SDS011;8655;57.106;-2.088;2022-11-20T11:12:24;3.00;;;1.27;;
17079;SDS011;8655;57.106;-2.088;2022-11-20T11:14:53;3.33;;;1.30;;
17079;SDS011;8655;57.106;-2.088;2022-11-20T11:17:21;4.33;;;1.30;;
17079;SDS011;8655;57.106;-2.088;2022-11-20T11:20:14;2.23;;;1.10;;
17079;SDS011;8655;57.106;-2.088;2022-11-20T11:22:44;3.10;;;1.30;;
17079;SDS011;8655;57.106;-2.088;2022-11-20T11:28:19;2.97;;;1.53;;
17079;SDS011;8655;57.106;-2.088;2022-11-20T11:30:46;3.37;;;1.20;;
17079;SDS011;8655;57.106;-2.088;2022-11-20T11:33:22;2.83;;;1.30;;
17079;SDS011;8655;57.106;-2.088;2022-11-20T11:35:58;3.57;;;1.40;;
17079;SDS011;8655;57.106;-2.088;2022-11-20T11:38:34;4.37;;;1.53;;
17079;SDS011;8655;57.106;-2.088;2022-11-20T11:41:06;2.97;;;1.30;;
17079;SDS011;8655;57.106;-2.088;2022-11-20T11:43:37;3.00;;;1.13;;
17079;SDS011;8655;57.106;-2.088;2022-11-20T11:49:08;3.93;;;1.40;;
17079;SDS011;8655;57.106;-2.088;2022-11-20T11:54:31;3.77;;;1.30;;
17079;SDS011;8655;57.106;-2.088;2022-11-20T12:00:12;2.40;;;1.20;;
17079;SDS011;8655;57.106;-2.088;2022-11-20T12:05:19;3.10;;;1.50;;
17079;SDS011;8655;57.106;-2.088;2022-11-20T12:10:16;2.63;;;1.40;;
17079;SDS011;8655;57.106;-2.088;2022-11-20T12:15:45;3.40;;;1.40;;
17079;SDS011;8655;57.106;-2.088;2022-11-20T12:18:18;2.17;;;1.47;;
17079;SDS011;8655;57.106;-2.088;2022-11-20T12:21:31;2.80;;;1.03;;
17079;SDS011;8655;57.106;-2.088;2022-11-20T12:29:43;1.60;;;1.30;;
17079;SDS011;8655;57.106;-2.088;2022-11-20T12:43:26;2.83;;;1.30;;
17079;SDS011;8655;57.106;-2.088;2022-11-20T12:51:58;3.13;;;1.20;;
17079;SDS011;8655;57.106;-2.088;2022-11-20T13:08:39;2.60;;;1.30;;
17079;SDS011;8655;57.106;-2.088;2022-11-20T13:19:12;1.50;;;1.07;;
17079;SDS011;8655;57.106;-2.088;2022-11-20T13:21:41;2.20;;;1.10;;
17079;SDS011;8655;57.106;-2.088;2022-11-20T13:27:04;2.33;;;1.30;;
17079;SDS011;8655;57.106;-2.088;2022-11-20T13:29:44;2.03;;;1.27;;
17079;SDS011;8655;57.106;-2.088;2022-11-20T13:32:17;1.77;;;1.10;;
17079;SDS011;8655;57.106;-2.088;2022-11-20T13:34:54;1.70;;;1.10;;
17079;SDS011;8655;57.106;-2.088;2022-11-20T13:37:58;1.80;;;1.10;;
17079;SDS011;8655;57.106;-2.088;2022-11-20T13:40:24;2.10;;;1.47;;
17079;SDS011;8655;57.106;-2.088;2022-11-20T13:45:30;2.00;;;1.17;;
17079;SDS011;8655;57.106;-2.088;2022-11-20T13:47:58;1.33;;;1.00;;
17079;SDS011;8655;57.106;-2.088;2022-11-20T13:50:55;2.50;;;1.30;;
17079;SDS011;8655;57.106;-2.088;2022-11-20T13:56:29;2.17;;;1.13;;
17079;SDS011;8655;57.106;-2.088;2022-11-20T14:01:51;3.03;;;1.27;;
17079;SDS011;8655;57.106;-2.088;2022-11-20T14:04:21;1.67;;;1.07;;
17079;SDS011;8655;57.106;-2.088;2022-11-20T14:06:55;1.90;;;1.20;;
17079;SDS011;8655;57.106;-2.088;2022-11-20T14:09:29;1.40;;;1.07;;
17079;SDS011;8655;57.106;-2.088;2022-11-20T14:11:59;2.97;;;1.23;;
17079;SDS011;8655;57.106;-2.088;2022-11-20T14:14:26;2.30;;;1.33;;
17079;SDS011;8655;57.106;-2.088;2022-11-20T14:17:04;1.90;;;1.10;;
17079;SDS011;8655;57.106;-2.088;2022-11-20T14:19:47;2.37;;;1.20;;
17079;SDS011;8655;57.106;-2.088;2022-11-20T14:22:16;2.03;;;1.30;;
17079;SDS011;8655;57.106;-2.088;2022-11-20T14:24:43;2.40;;;1.30;;
17079;SDS011;8655;57.106;-2.088;2022-11-20T14:27:13;3.27;;;1.47;;
17079;SDS011;8655;57.106;-2.088;2022-11-20T14:29:44;2.03;;;1.07;;
17079;SDS011;8655;57.106;-2.088;2022-11-20T14:32:14;1.33;;;1.07;;
17079;SDS011;8655;57.106;-2.088;2022-11-20T14:34:44;1.73;;;1.10;;
17079;SDS011;8655;57.106;-2.088;2022-11-20T14:37:12;2.20;;;1.20;;
17079;SDS011;8655;57.106;-2.088;2022-11-20T14:39:48;1.97;;;1.20;;
17079;SDS011;8655;57.106;-2.088;2022-11-20T14:42:22;1.20;;;1.00;;
17079;SDS011;8655;57.106;-2.088;2022-11-20T14:44:50;2.13;;;1.10;;
17079;SDS011;8655;57.106;-2.088;2022-11-20T14:47:21;2.00;;;1.30;;
17079;SDS011;8655;57.106;-2.088;2022-11-20T14:49:51;1.43;;;1.03;;
17079;SDS011;8655;57.106;-2.088;2022-11-20T14:52:20;1.43;;;0.93;;
17079;SDS011;8655;57.106;-2.088;2022-11-20T14:54:48;1.30;;;1.10;;
17079;SDS011;8655;57.106;-2.088;2022-11-20T14:57:35;2.00;;;1.27;;
17079;SDS011;8655;57.106;-2.088;2022-11-20T15:02:40;2.27;;;1.10;;
17079;SDS011;8655;57.106;-2.088;2022-11-20T15:05:07;2.40;;;1.20;;
17079;SDS011;8655;57.106;-2.088;2022-11-20T15:07:37;1.67;;;1.20;;
17079;SDS011;8655;57.106;-2.088;2022-11-20T15:10:07;2.47;;;1.30;;
17079;SDS011;8655;57.106;-2.088;2022-11-20T15:12:56;2.37;;;1.20;;
17079;SDS011;8655;57.106;-2.088;2022-11-20T15:15:33;1.43;;;0.97;;
17079;SDS011;8655;57.106;-2.088;2022-11-20T15:18:04;2.97;;;1.30;;
17079;SDS011;8655;57.106;-2.088;2022-11-20T15:20:30;1.47;;;1.17;;
17079;SDS011;8655;57.106;-2.088;2022-11-20T15:22:57;2.43;;;1.30;;
17079;SDS011;8655;57.106;-2.088;2022-11-20T15:25:23;1.93;;;1.20;;
17079;SDS011;8655;57.106;-2.088;2022-11-20T15:27:51;1.30;;;1.20;;
17079;SDS011;8655;57.106;-2.088;2022-11-20T15:30:21;1.90;;;1.20;;
17079;SDS011;8655;57.106;-2.088;2022-11-20T15:32:47;2.47;;;1.30;;
17079;SDS011;8655;57.106;-2.088;2022-11-20T15:35:14;2.27;;;1.10;;
17079;SDS011;8655;57.106;-2.088;2022-11-20T15:37:41;1.77;;;1.00;;
17079;SDS011;8655;57.106;-2.088;2022-11-20T15:40:07;2.50;;;1.20;;
17079;SDS011;8655;57.106;-2.088;2022-11-20T15:42:34;1.33;;;0.90;;
17079;SDS011;8655;57.106;-2.088;2022-11-20T15:45:00;2.13;;;1.10;;
17079;SDS011;8655;57.106;-2.088;2022-11-20T15:47:28;2.17;;;1.17;;
17079;SDS011;8655;57.106;-2.088;2022-11-20T15:49:56;1.83;;;1.07;;
17079;SDS011;8655;57.106;-2.088;2022-11-20T15:52:22;1.60;;;1.20;;
17079;SDS011;8655;57.106;-2.088;2022-11-20T15:54:47;2.93;;;1.20;;
17079;SDS011;8655;57.106;-2.088;2022-11-20T15:57:13;1.57;;;1.10;;
17079;SDS011;8655;57.106;-2.088;2022-11-20T15:59:39;2.03;;;1.40;;
17079;SDS011;8655;57.106;-2.088;2022-11-20T16:02:10;1.47;;;1.20;;
17079;SDS011;8655;57.106;-2.088;2022-11-20T16:04:37;2.13;;;1.03;;
17079;SDS011;8655;57.106;-2.088;2022-11-20T16:07:03;2.00;;;1.10;;
17079;SDS011;8655;57.106;-2.088;2022-11-20T16:09:28;1.80;;;0.90;;
17079;SDS011;8655;57.106;-2.088;2022-11-20T16:11:54;1.30;;;1.20;;
17079;SDS011;8655;57.106;-2.088;2022-11-20T16:14:20;1.53;;;1.10;;
17079;SDS011;8655;57.106;-2.088;2022-11-20T16:17:04;2.03;;;1.17;;
17079;SDS011;8655;57.106;-2.088;2022-11-20T16:19:30;1.53;;;1.03;;
17079;SDS011;8655;57.106;-2.088;2022-11-20T16:21:59;1.67;;;1.10;;
17079;SDS011;8655;57.106;-2.088;2022-11-20T16:24:27;1.67;;;1.20;;
17079;SDS011;8655;57.106;-2.088;2022-11-20T16:26:53;2.00;;;1.20;;
17079;SDS011;8655;57.106;-2.088;2022-11-20T16:29:19;2.10;;;1.10;;
17079;SDS011;8655;57.106;-2.088;2022-11-20T16:31:45;1.80;;;0.97;;
17079;SDS011;8655;57.106;-2.088;2022-11-20T16:34:11;2.30;;;1.37;;
17079;SDS011;8655;57.106;-2.088;2022-11-20T16:36:38;1.63;;;1.10;;
17079;SDS011;8655;57.106;-2.088;2022-11-20T16:39:05;1.57;;;1.20;;
17079;SDS011;8655;57.106;-2.088;2022-11-20T16:41:31;1.97;;;1.30;;
17079;SDS011;8655;57.106;-2.088;2022-11-20T16:43:58;1.00;;;0.90;;
17079;SDS011;8655;57.106;-2.088;2022-11-20T16:46:30;2.03;;;1.10;;
17079;SDS011;8655;57.106;-2.088;2022-11-20T16:49:03;1.90;;;1.00;;
17079;SDS011;8655;57.106;-2.088;2022-11-20T16:51:36;1.47;;;1.17;;
17079;SDS011;8655;57.106;-2.088;2022-11-20T16:54:02;2.20;;;1.37;;
17079;SDS011;8655;57.106;-2.088;2022-11-20T16:56:33;2.03;;;1.30;;
17079;SDS011;8655;57.106;-2.088;2022-11-20T16:58:59;1.80;;;1.20;;
17079;SDS011;8655;57.106;-2.088;2022-11-20T17:01:27;2.13;;;1.23;;
17079;SDS011;8655;57.106;-2.088;2022-11-20T17:04:00;1.77;;;1.30;;
17079;SDS011;8655;57.106;-2.088;2022-11-20T17:06:29;1.90;;;1.10;;
17079;SDS011;8655;57.106;-2.088;2022-11-20T17:08:56;2.10;;;1.63;;
17079;SDS011;8655;57.106;-2.088;2022-11-20T17:11:22;1.70;;;1.10;;
17079;SDS011;8655;57.106;-2.088;2022-11-20T17:13:49;1.87;;;1.10;;